Time;durP1;ratioP1;P1;durP2;ratioP2;P2;SDS_P1;SDS_P2;PMS_P1;PMS_P2;Temp;Humidity;BMP_temperature;BMP_pressure;BME280_temperature;BME280_humidity;BME280_pressure;Samples;Min_cycle;Max_cycle;Signal;HPM_P1;HPM_P2
2021/01/08 00:02:22;;;;;;;15.95;9.20;;;5.00;99.80;;;;;;5072461;28;20086;-71
2021/01/08 00:04:47;;;;;;;17.95;9.82;;;4.90;99.70;;;;;;5072967;28;20361;-70
2021/01/08 00:07:14;;;;;;;16.92;9.27;;;4.90;99.80;;;;;;5072242;28;20422;-70
2021/01/08 00:09:40;;;;;;;14.70;9.02;;;5.00;99.70;;;;;;5072972;28;20119;-70
2021/01/08 00:12:06;;;;;;;15.90;9.25;;;4.90;99.70;;;;;;5073573;28;20119;-70
2021/01/08 00:14:32;;;;;;;13.27;8.05;;;4.90;99.90;;;;;;5073081;28;20040;-70
2021/01/08 00:16:57;;;;;;;14.80;9.15;;;5.00;99.80;;;;;;5073049;28;20101;-70
2021/01/08 00:19:23;;;;;;;16.08;8.38;;;4.90;99.70;;;;;;5072821;28;20028;-70
2021/01/08 00:21:49;;;;;;;15.77;8.93;;;5.00;99.80;;;;;;5072827;28;20109;-69
2021/01/08 00:24:15;;;;;;;14.15;7.75;;;5.10;99.60;;;;;;5074342;28;20024;-70
2021/01/08 00:26:42;;;;;;;14.57;8.32;;;5.00;99.60;;;;;;5072801;28;20032;-70
2021/01/08 00:29:11;;;;;;;12.40;8.25;;;4.90;99.60;;;;;;5072905;28;20032;-69
2021/01/08 00:31:46;;;;;;;15.48;8.63;;;5.00;99.70;;;;;;5072782;28;20165;-70
2021/01/08 00:34:15;;;;;;;14.43;8.63;;;5.00;99.60;;;;;;5071759;28;20028;-70
2021/01/08 00:36:51;;;;;;;14.85;8.77;;;4.90;99.70;;;;;;5072374;28;20037;-69
2021/01/08 00:39:18;;;;;;;15.60;8.95;;;5.00;99.80;;;;;;5073824;28;20485;-70
2021/01/08 00:41:44;;;;;;;14.35;8.70;;;5.00;99.80;;;;;;5072405;28;20040;-70
2021/01/08 00:44:10;;;;;;;14.70;8.90;;;5.10;99.60;;;;;;5072357;28;20490;-70
2021/01/08 00:46:40;;;;;;;15.68;8.73;;;4.90;99.70;;;;;;5071409;28;20351;-69
2021/01/08 00:49:07;;;;;;;15.05;8.85;;;5.00;99.80;;;;;;5072466;28;20123;-69
2021/01/08 00:51:33;;;;;;;15.57;7.85;;;4.90;99.80;;;;;;5072325;28;20017;-69
2021/01/08 00:53:59;;;;;;;15.70;8.52;;;5.00;99.80;;;;;;5073909;28;20020;-70
2021/01/08 00:56:26;;;;;;;15.55;9.10;;;4.90;99.80;;;;;;5071115;28;20040;-70
2021/01/08 00:58:51;;;;;;;15.23;9.65;;;5.00;99.90;;;;;;5072206;28;20426;-69
2021/01/08 01:01:18;;;;;;;12.95;8.05;;;4.80;99.80;;;;;;5071980;28;20505;-71
2021/01/08 01:03:45;;;;;;;15.30;9.02;;;4.90;99.90;;;;;;5072342;28;20485;-70
2021/01/08 01:06:11;;;;;;;16.05;9.10;;;4.90;99.90;;;;;;5073645;28;20415;-69
2021/01/08 01:08:37;;;;;;;14.32;8.63;;;4.80;99.90;;;;;;5071963;28;20124;-70
2021/01/08 01:11:03;;;;;;;12.38;7.45;;;4.80;99.90;;;;;;5072056;28;20043;-70
2021/01/08 01:13:29;;;;;;;15.57;8.25;;;4.80;99.90;;;;;;5071878;28;20389;-70
2021/01/08 01:15:54;;;;;;;13.32;7.20;;;4.80;99.90;;;;;;5071989;28;20109;-69
2021/01/08 01:18:21;;;;;;;13.68;7.65;;;4.90;99.80;;;;;;5071829;28;20032;-69
2021/01/08 01:20:48;;;;;;;13.02;7.40;;;4.90;99.70;;;;;;5073624;28;20074;-69
2021/01/08 01:23:13;;;;;;;13.27;7.57;;;4.90;99.70;;;;;;5071959;28;20040;-70
2021/01/08 01:25:39;;;;;;;11.50;7.07;;;5.00;99.70;;;;;;5070900;28;20142;-69
2021/01/08 01:28:05;;;;;;;13.02;7.88;;;4.90;99.60;;;;;;5071936;28;20493;-69
2021/01/08 01:30:31;;;;;;;13.18;7.07;;;5.00;99.60;;;;;;5068484;28;20021;-70
2021/01/08 01:33:01;;;;;;;12.63;7.35;;;4.80;99.50;;;;;;5073393;28;20028;-69
2021/01/08 01:35:27;;;;;;;12.35;7.10;;;4.70;99.70;;;;;;5070965;28;20040;-69
2021/01/08 01:37:53;;;;;;;12.38;7.25;;;4.80;99.80;;;;;;5071841;28;20049;-69
2021/01/08 01:40:20;;;;;;;12.65;7.47;;;4.80;99.80;;;;;;5071788;28;20358;-69
2021/01/08 01:42:46;;;;;;;13.52;7.57;;;4.80;99.70;;;;;;5072000;28;20510;-70
2021/01/08 01:45:12;;;;;;;12.30;6.80;;;4.80;99.60;;;;;;5073318;28;20163;-70
2021/01/08 01:47:39;;;;;;;10.32;6.35;;;4.70;99.80;;;;;;5071624;28;20413;-70
2021/01/08 01:50:05;;;;;;;13.00;6.95;;;4.60;99.80;;;;;;5071802;28;20037;-70
2021/01/08 01:52:31;;;;;;;13.75;6.95;;;4.60;99.80;;;;;;5070667;28;20030;-69
2021/01/08 01:54:57;;;;;;;12.02;6.63;;;4.70;99.90;;;;;;5071851;28;20031;-69
2021/01/08 01:57:22;;;;;;;13.40;7.25;;;4.50;99.80;;;;;;5071520;28;20033;-69
2021/01/08 01:59:48;;;;;;;13.30;7.22;;;4.60;99.90;;;;;;5073245;28;20028;-70
2021/01/08 02:02:38;;;;;;;12.15;6.78;;;4.70;99.90;;;;;;5071106;28;20043;-72
2021/01/08 02:05:07;;;;;;;12.48;6.97;;;4.60;99.90;;;;;;5071265;28;20489;-71
2021/01/08 02:07:37;;;;;;;11.70;6.57;;;4.60;99.90;;;;;;5071418;28;20037;-70
2021/01/08 02:10:05;;;;;;;15.30;7.60;;;4.70;99.90;;;;;;5071634;28;20052;-69
2021/01/08 02:12:32;;;;;;;14.63;7.53;;;4.50;99.90;;;;;;5071514;28;20488;-69
2021/01/08 02:15:01;;;;;;;17.02;7.95;;;4.40;99.90;;;;;;5073121;28;20107;-69
2021/01/08 02:17:28;;;;;;;13.88;7.57;;;4.40;99.90;;;;;;5071417;28;20040;-69
2021/01/08 02:20:04;;;;;;;13.48;7.85;;;4.60;99.90;;;;;;5071392;28;20036;-69
2021/01/08 02:23:07;;;;;;;13.50;7.45;;;4.50;99.90;;;;;;5070577;28;20044;-70
2021/01/08 02:25:35;;;;;;;14.13;7.88;;;4.60;99.90;;;;;;5071183;28;20031;-70
2021/01/08 02:28:00;;;;;;;13.38;7.90;;;4.60;99.90;;;;;;5071608;28;20493;-69
2021/01/08 02:30:26;;;;;;;14.25;8.07;;;4.60;99.90;;;;;;5073062;28;20091;-69
2021/01/08 02:32:53;;;;;;;13.77;7.82;;;4.60;99.90;;;;;;5076551;28;20467;-69
2021/01/08 02:35:21;;;;;;;13.25;7.25;;;4.70;99.90;;;;;;5074847;28;20387;-69
2021/01/08 02:37:47;;;;;;;;;;;4.70;99.90;;;;;;5075205;28;20048;-70
2021/01/08 02:40:13;;;;;;;15.25;7.97;;;4.80;99.90;;;;;;5074597;28;20003;-70
2021/01/08 02:42:42;;;;;;;13.82;7.03;;;4.80;99.90;;;;;;5074813;28;20151;-70
2021/01/08 02:45:08;;;;;;;14.93;7.70;;;4.80;99.90;;;;;;5075341;28;20438;-70
2021/01/08 02:47:34;;;;;;;15.63;7.38;;;4.80;99.90;;;;;;5074710;28;20052;-70
2021/01/08 02:50:00;;;;;;;14.25;7.35;;;4.90;99.90;;;;;;5074638;28;20033;-71
2021/01/08 02:52:27;;;;;;;13.38;7.00;;;4.70;99.70;;;;;;5074672;28;20115;-69
2021/01/08 02:54:56;;;;;;;14.13;7.85;;;4.70;99.90;;;;;;5073756;28;20430;-69
2021/01/08 02:57:23;;;;;;;13.75;7.78;;;4.70;99.90;;;;;;5074446;28;20040;-69
2021/01/08 02:59:49;;;;;;;15.40;7.82;;;4.70;99.90;;;;;;5075005;28;20469;-70
2021/01/08 03:02:15;;;;;;;15.70;8.13;;;4.70;99.90;;;;;;5074299;28;20051;-69
2021/01/08 03:04:40;;;;;;;17.80;8.80;;;4.70;99.90;;;;;;5074298;28;20044;-69
2021/01/08 03:07:07;;;;;;;17.60;8.68;;;4.80;99.90;;;;;;5074295;28;20041;-70
2021/01/08 03:09:33;;;;;;;16.00;8.70;;;4.80;99.90;;;;;;5074149;28;20056;-70
2021/01/08 03:12:00;;;;;;;16.52;8.90;;;4.80;99.90;;;;;;5075948;28;20055;-69
2021/01/08 03:14:26;;;;;;;16.80;9.55;;;4.80;99.90;;;;;;5074170;28;20044;-70
2021/01/08 03:16:52;;;;;;;17.55;8.68;;;4.80;99.90;;;;;;5074404;28;20039;-69
2021/01/08 03:19:17;;;;;;;17.92;9.25;;;5.00;99.90;;;;;;5074180;28;20029;-70
2021/01/08 03:21:43;;;;;;;17.67;9.35;;;4.80;99.80;;;;;;5074106;28;20032;-70
2021/01/08 03:24:11;;;;;;;18.77;9.63;;;4.70;99.90;;;;;;5075643;28;20017;-70
2021/01/08 03:26:36;;;;;;;19.13;9.52;;;4.70;99.90;;;;;;5073943;28;20059;-70
2021/01/08 03:29:02;;;;;;;18.00;8.88;;;4.70;99.90;;;;;;5074053;28;20474;-69
2021/01/08 03:31:28;;;;;;;22.38;10.40;;;4.50;99.90;;;;;;5073927;28;20039;-69
2021/01/08 03:33:54;;;;;;;20.67;9.68;;;4.60;99.90;;;;;;5073857;28;20040;-69
2021/01/08 03:36:20;;;;;;;17.33;9.48;;;4.80;99.90;;;;;;5075340;28;20028;-70
2021/01/08 03:38:45;;;;;;;16.42;9.38;;;4.70;99.90;;;;;;5073836;28;20052;-69
2021/01/08 03:41:11;;;;;;;17.17;9.77;;;4.60;99.90;;;;;;5072588;28;20057;-70
2021/01/08 03:43:36;;;;;;;16.02;8.85;;;4.70;99.90;;;;;;5073615;28;20032;-70
2021/01/08 03:46:02;;;;;;;14.35;8.68;;;4.60;99.90;;;;;;5073617;28;20106;-69
2021/01/08 03:48:28;;;;;;;17.98;8.93;;;4.70;99.90;;;;;;5072606;28;20024;-72
2021/01/08 03:50:54;;;;;;;16.27;9.18;;;4.60;99.90;;;;;;5075189;28;20028;-72
2021/01/08 03:53:19;;;;;;;15.05;8.88;;;4.80;99.90;;;;;;5073483;28;20062;-71
2021/01/08 03:55:45;;;;;;;15.10;8.57;;;4.60;99.90;;;;;;5073063;28;20048;-69
2021/01/08 03:58:10;;;;;;;15.35;8.00;;;4.40;99.90;;;;;;5073412;28;20036;-70
2021/01/08 04:00:36;;;;;;;14.15;8.52;;;4.50;99.90;;;;;;5072318;28;20446;-69
2021/01/08 04:03:02;;;;;;;13.95;7.18;;;4.50;99.90;;;;;;5074885;28;20059;-70
2021/01/08 04:05:27;;;;;;;12.93;7.13;;;4.60;99.90;;;;;;5073245;28;20477;-69
2021/01/08 04:07:53;;;;;;;14.88;7.40;;;4.70;99.90;;;;;;5073250;28;20048;-69
2021/01/08 04:10:18;;;;;;;15.77;8.45;;;4.70;99.90;;;;;;5072983;28;20044;-70
2021/01/08 04:12:44;;;;;;;15.02;7.90;;;4.60;99.90;;;;;;5073171;28;20453;-71
2021/01/08 04:15:10;;;;;;;17.08;8.30;;;4.50;99.90;;;;;;5074660;28;20048;-70
2021/01/08 04:17:35;;;;;;;16.00;8.93;;;4.60;99.90;;;;;;5072891;28;20127;-69
2021/01/08 04:20:01;;;;;;;16.38;8.43;;;4.60;99.90;;;;;;5072994;28;20032;-70
2021/01/08 04:22:27;;;;;;;18.63;8.52;;;4.70;99.90;;;;;;5073105;28;20025;-70
2021/01/08 04:24:52;;;;;;;18.48;9.02;;;4.80;99.90;;;;;;5073132;28;20025;-70
2021/01/08 04:27:18;;;;;;;15.88;8.77;;;4.80;99.90;;;;;;5074399;28;20519;-70
2021/01/08 04:29:43;;;;;;;16.02;8.77;;;4.80;99.90;;;;;;5072668;28;20039;-69
2021/01/08 04:32:09;;;;;;;16.92;7.93;;;4.80;99.90;;;;;;5072776;28;20045;-69
2021/01/08 04:34:35;;;;;;;16.13;8.70;;;4.70;99.90;;;;;;5072585;28;20048;-70
2021/01/08 04:37:00;;;;;;;14.95;8.05;;;4.70;99.90;;;;;;5072657;28;20362;-69
2021/01/08 04:39:26;;;;;;;14.95;8.32;;;4.70;99.90;;;;;;5072226;28;20044;-70
2021/01/08 04:41:53;;;;;;;14.55;7.97;;;4.70;99.90;;;;;;5074136;28;20025;-71
2021/01/08 04:44:19;;;;;;;13.90;7.78;;;4.80;99.90;;;;;;5072671;28;20440;-70
2021/01/08 04:46:46;;;;;;;18.38;8.80;;;4.90;99.90;;;;;;5072410;28;20036;-69
2021/01/08 04:49:14;;;;;;;16.42;9.27;;;4.90;99.90;;;;;;5072285;28;20029;-70
2021/01/08 04:51:40;;;;;;;16.48;8.68;;;4.90;99.90;;;;;;5072542;28;20066;-70
2021/01/08 04:54:06;;;;;;;18.02;8.35;;;4.80;99.90;;;;;;5072942;28;20020;-70
2021/01/08 04:56:38;;;;;;;15.65;8.40;;;4.90;99.90;;;;;;5072298;28;20099;-69
2021/01/08 04:59:04;;;;;;;15.35;8.05;;;4.60;99.90;;;;;;5072291;28;20066;-70
2021/01/08 05:01:30;;;;;;;14.60;7.95;;;4.60;99.90;;;;;;5071057;28;20032;-69
2021/01/08 05:03:56;;;;;;;14.40;8.07;;;4.50;99.90;;;;;;5071870;28;20051;-70
2021/01/08 05:06:22;;;;;;;17.20;8.05;;;4.50;99.90;;;;;;5072006;28;20035;-69
2021/01/08 05:08:48;;;;;;;15.90;8.45;;;4.50;99.90;;;;;;5073732;28;20078;-70
2021/01/08 05:11:40;;;;;;;15.13;8.68;;;4.50;99.90;;;;;;5072146;28;20076;-69
2021/01/08 05:14:09;;;;;;;14.50;8.27;;;4.50;99.90;;;;;;5103006;28;20124;-70
2021/01/08 05:16:37;;;;;;;18.10;8.68;;;4.50;99.90;;;;;;5071778;28;20036;-70
2021/01/08 05:19:04;;;;;;;16.23;8.55;;;4.70;99.90;;;;;;5072151;28;20028;-71
2021/01/08 05:21:31;;;;;;;16.70;8.40;;;4.70;99.90;;;;;;5070639;28;20115;-70
2021/01/08 05:24:00;;;;;;;16.35;8.73;;;4.80;99.90;;;;;;5073586;28;20024;-70
2021/01/08 05:26:26;;;;;;;13.98;7.40;;;4.80;99.90;;;;;;5071834;28;20036;-69
2021/01/08 05:28:53;;;;;;;13.63;7.40;;;4.90;99.90;;;;;;5072040;28;20124;-70
2021/01/08 05:31:21;;;;;;;16.45;7.72;;;4.80;99.90;;;;;;5072008;28;20044;-69
2021/01/08 05:33:51;;;;;;;12.27;6.65;;;4.80;99.90;;;;;;5072023;28;20474;-70
2021/01/08 05:36:17;;;;;;;12.35;6.75;;;4.70;99.90;;;;;;5073400;28;20028;-70
2021/01/08 05:38:49;;;;;;;14.60;6.40;;;4.80;99.90;;;;;;5071662;28;20059;-69
2021/01/08 05:41:15;;;;;;;11.00;5.78;;;4.80;99.90;;;;;;5071769;28;20041;-70
2021/01/08 05:43:42;;;;;;;9.65;5.75;;;4.80;99.90;;;;;;5071742;28;20051;-69
2021/01/08 05:46:16;;;;;;;11.53;5.80;;;4.60;99.90;;;;;;5071815;28;20370;-70
2021/01/08 05:48:50;;;;;;;9.73;5.63;;;4.80;99.90;;;;;;5071643;28;20348;-70
2021/01/08 05:51:20;;;;;;;9.50;5.53;;;4.70;99.90;;;;;;5073214;28;20036;-70
2021/01/08 05:53:48;;;;;;;10.63;5.93;;;4.90;99.90;;;;;;5072109;28;20094;-70
2021/01/08 05:56:19;;;;;;;9.75;5.82;;;4.90;99.90;;;;;;5071743;28;20536;-69
2021/01/08 05:58:45;;;;;;;13.88;5.90;;;4.70;99.90;;;;;;5071695;28;20058;-68
2021/01/08 06:01:12;;;;;;;14.43;6.88;;;4.70;99.90;;;;;;5071599;28;20041;-70
2021/01/08 06:03:39;;;;;;;9.38;5.22;;;4.70;99.90;;;;;;5071658;28;20462;-69
2021/01/08 06:06:05;;;;;;;11.48;6.53;;;4.70;99.90;;;;;;5075989;28;20358;-69
2021/01/08 06:08:49;;;;;;;12.07;6.55;;;4.70;99.90;;;;;;5074407;28;20036;-71
2021/01/08 06:11:18;;;;;;;12.45;6.88;;;4.80;99.90;;;;;;5075180;28;20696;-70
2021/01/08 06:13:45;;;;;;;11.35;6.28;;;4.70;99.90;;;;;;5075142;28;20516;-71
2021/01/08 06:16:18;;;;;;;12.17;6.73;;;4.90;99.90;;;;;;5075042;28;20381;-70
2021/01/08 06:18:45;;;;;;;11.98;6.30;;;4.80;99.90;;;;;;5075064;28;20036;-70
2021/01/08 06:21:10;;;;;;;12.20;6.33;;;4.70;99.90;;;;;;5076799;28;20382;-69
2021/01/08 06:23:49;;;;;;;11.98;6.18;;;4.80;99.90;;;;;;5075113;28;20262;-71
2021/01/08 06:26:20;;;;;;;17.27;7.75;;;4.70;99.90;;;;;;5075018;28;20036;-69
2021/01/08 06:28:50;;;;;;;12.75;6.97;;;4.90;99.90;;;;;;5075222;28;20169;-69
2021/01/08 06:31:21;;;;;;;12.80;7.25;;;4.90;99.90;;;;;;5074827;28;20361;-69
2021/01/08 06:33:58;;;;;;;10.98;6.38;;;5.00;99.90;;;;;;5073904;28;20085;-70
2021/01/08 06:36:32;;;;;;;12.80;7.10;;;4.90;99.90;;;;;;5074637;28;20063;-70
2021/01/08 06:39:06;;;;;;;11.38;6.47;;;4.80;99.90;;;;;;5076168;28;20048;-70
2021/01/08 06:41:32;;;;;;;13.52;6.90;;;4.80;99.90;;;;;;5074695;28;20109;-69
2021/01/08 06:44:03;;;;;;;13.43;6.60;;;4.70;99.90;;;;;;5074733;28;20036;-71
2021/01/08 06:46:36;;;;;;;14.13;6.88;;;4.70;99.90;;;;;;5074562;28;20363;-69
2021/01/08 06:49:07;;;;;;;11.55;6.88;;;4.80;99.90;;;;;;5074527;28;20481;-69
2021/01/08 06:51:38;;;;;;;11.82;6.53;;;4.80;99.90;;;;;;5074706;28;20020;-69
2021/01/08 06:54:09;;;;;;;13.27;6.25;;;4.70;99.90;;;;;;5076068;28;20040;-70
2021/01/08 06:56:42;;;;;;;13.30;6.05;;;4.60;99.90;;;;;;5074468;28;20127;-68
2021/01/08 06:59:12;;;;;;;9.88;5.82;;;4.70;99.90;;;;;;5074791;28;20174;-67
2021/01/08 07:01:57;;;;;;;10.23;6.13;;;4.70;99.90;;;;;;5074642;28;20075;-69
2021/01/08 07:04:29;;;;;;;10.38;5.82;;;4.80;99.90;;;;;;5073519;28;20078;-69
2021/01/08 07:06:58;;;;;;;8.95;5.55;;;4.80;99.90;;;;;;5074043;28;20072;-70
2021/01/08 07:09:34;;;;;;;9.80;4.82;;;4.80;99.90;;;;;;5074170;28;20028;-70
2021/01/08 07:12:01;;;;;;;11.68;4.93;;;4.80;99.90;;;;;;5075788;28;20024;-72
2021/01/08 07:14:28;;;;;;;8.98;4.90;;;4.90;99.90;;;;;;5074082;28;20123;-72
2021/01/08 07:16:55;;;;;;;12.90;5.75;;;4.90;99.90;;;;;;5073717;28;20354;-69
2021/01/08 07:19:28;;;;;;;9.35;5.35;;;4.90;99.90;;;;;;5074039;28;20089;-70
2021/01/08 07:21:55;;;;;;;8.93;4.97;;;4.90;99.90;;;;;;5073958;28;20039;-70
2021/01/08 07:24:35;;;;;;;12.32;5.57;;;4.80;99.90;;;;;;5073830;28;20029;-70
2021/01/08 07:27:15;;;;;;;9.98;4.82;;;4.80;99.90;;;;;;5074312;28;20043;-71
2021/01/08 07:29:49;;;;;;;10.18;5.00;;;4.80;99.90;;;;;;5073806;28;20039;-69
2021/01/08 07:32:31;;;;;;;8.57;4.25;;;4.70;99.90;;;;;;5073822;28;20040;-70
2021/01/08 07:34:57;;;;;;;11.15;5.00;;;4.70;99.90;;;;;;5072663;28;20115;-71
2021/01/08 07:37:51;;;;;;;10.80;5.18;;;4.80;99.90;;;;;;5073463;28;20105;-70
2021/01/08 07:40:17;;;;;;;9.20;5.13;;;4.80;99.90;;;;;;5073433;28;20035;-70
2021/01/08 07:42:58;;;;;;;11.45;5.30;;;4.80;99.90;;;;;;5073769;28;20028;-69
2021/01/08 07:45:49;;;;;;;10.43;5.03;;;4.90;99.90;;;;;;5072496;28;20086;-70
2021/01/08 07:48:35;;;;;;;10.25;5.15;;;4.80;99.90;;;;;;5075006;28;20032;-67
2021/01/08 07:51:10;;;;;;;10.65;5.57;;;4.70;99.90;;;;;;5073865;28;20466;-69
2021/01/08 07:56:12;;;;;;;9.63;4.80;;;4.70;99.90;;;;;;5073208;28;20489;-67
2021/01/08 07:58:38;;;;;;;10.93;5.40;;;4.70;99.90;;;;;;5073108;28;20346;-68
2021/01/08 08:01:05;;;;;;;9.27;4.40;;;4.70;99.90;;;;;;5073297;28;20028;-71
2021/01/08 08:03:31;;;;;;;9.43;5.15;;;4.70;99.90;;;;;;5073093;28;20071;-69
2021/01/08 08:05:59;;;;;;;9.02;4.78;;;4.60;99.90;;;;;;5073651;28;20060;-71
2021/01/08 08:08:25;;;;;;;;;;;4.70;99.90;;;;;;5073634;28;20506;-68
2021/01/08 08:10:50;;;;;;;8.88;4.95;;;4.70;99.90;;;;;;5072028;28;20297;-78
2021/01/08 08:13:25;;;;;;;9.18;4.38;;;4.60;99.90;;;;;;5072821;28;20438;-69
2021/01/08 08:15:51;;;;;;;8.85;4.88;;;4.70;99.90;;;;;;5073299;28;20450;-69
2021/01/08 08:18:16;;;;;;;12.85;5.60;;;4.70;99.90;;;;;;5074425;28;20021;-67
2021/01/08 08:20:42;;;;;;;8.60;4.95;;;4.80;99.90;;;;;;5071690;28;20024;-67
2021/01/08 08:23:18;;;;;;;9.50;4.78;;;4.80;99.90;;;;;;5072954;28;20025;-67
2021/01/08 08:25:44;;;;;;;11.07;5.35;;;4.80;99.90;;;;;;5072634;28;20351;-69
2021/01/08 08:28:11;;;;;;;9.27;5.20;;;4.70;99.90;;;;;;5064123;28;20477;-69
2021/01/08 08:30:37;;;;;;;9.25;4.88;;;4.80;99.90;;;;;;5052506;28;20035;-69
2021/01/08 08:33:05;;;;;;;11.20;4.70;;;4.80;99.90;;;;;;5054054;28;20092;-67
2021/01/08 08:35:34;;;;;;;11.75;4.65;;;4.80;99.90;;;;;;5070626;28;20037;-67
2021/01/08 08:37:59;;;;;;;;;;;4.80;99.90;;;;;;5072557;28;20052;-70
2021/01/08 08:40:30;;;;;;;11.00;4.50;;;4.80;99.90;;;;;;5072417;28;19969;-70
2021/01/08 08:42:58;;;;;;;9.80;4.65;;;4.80;99.90;;;;;;5072421;28;20097;-68
2021/01/08 08:45:33;;;;;;;9.27;4.53;;;4.80;99.90;;;;;;5071104;28;20048;-69
2021/01/08 08:48:08;;;;;;;7.68;4.43;;;4.90;99.90;;;;;;5072710;28;20072;-67
2021/01/08 08:50:40;;;;;;;12.15;4.70;;;4.90;99.90;;;;;;5072079;28;20032;-68
2021/01/08 08:53:11;;;;;;;8.65;4.20;;;4.80;99.90;;;;;;5071083;28;20032;-68
2021/01/08 08:55:37;;;;;;;10.52;4.72;;;4.70;99.90;;;;;;5072174;28;20032;-71
2021/01/08 08:58:03;;;;;;;8.20;4.53;;;4.60;99.90;;;;;;5072421;28;20039;-71
2021/01/08 09:00:30;;;;;;;9.38;4.70;;;4.70;99.90;;;;;;5071189;28;20028;-68
2021/01/08 09:02:56;;;;;;;8.48;4.47;;;4.70;99.90;;;;;;5072659;28;20039;-71
2021/01/08 09:05:28;;;;;;;8.55;4.55;;;4.80;99.90;;;;;;5071047;28;20028;-68
2021/01/08 09:08:28;;;;;;;7.93;3.95;;;4.70;99.90;;;;;;5071071;28;20044;-68
2021/01/08 09:11:17;;;;;;;8.40;4.20;;;4.70;99.90;;;;;;5071856;28;20037;-69
2021/01/08 09:13:52;;;;;;;6.80;4.07;;;4.70;99.90;;;;;;5071892;28;20458;-70
2021/01/08 09:16:25;;;;;;;6.93;3.88;;;4.70;99.90;;;;;;5071489;28;20106;-69
2021/01/08 09:19:02;;;;;;;10.20;4.80;;;4.60;99.90;;;;;;5071924;28;20035;-69
2021/01/08 09:21:31;;;;;;;7.30;4.38;;;4.60;99.90;;;;;;5071774;28;20493;-69
2021/01/08 09:24:04;;;;;;;9.15;4.43;;;4.60;99.90;;;;;;5073446;28;20099;-68
2021/01/08 09:26:31;;;;;;;6.50;4.05;;;4.50;99.90;;;;;;5071866;28;20339;-71
2021/01/08 09:28:57;;;;;;;7.45;4.68;;;4.40;99.90;;;;;;5058860;28;20123;-70
2021/01/08 09:31:38;;;;;;;7.68;4.50;;;4.60;99.90;;;;;;5083815;28;20384;-70
2021/01/08 09:34:04;;;;;;;8.73;4.55;;;4.60;99.90;;;;;;5051764;28;20029;-71
2021/01/08 09:36:32;;;;;;;11.15;5.10;;;4.60;99.90;;;;;;5051720;28;20043;-71
2021/01/08 09:39:06;;;;;;;8.18;5.05;;;4.70;99.90;;;;;;5054493;28;20055;-71
2021/01/08 09:41:37;;;;;;;8.02;4.80;;;4.70;99.90;;;;;;5056037;28;20483;-70
2021/01/08 09:44:05;;;;;;;8.32;4.60;;;4.60;99.90;;;;;;5054499;28;20041;-71
2021/01/08 09:46:31;;;;;;;9.20;4.45;;;4.60;99.90;;;;;;5055993;28;20048;-70
2021/01/08 09:49:07;;;;;;;7.93;4.78;;;4.50;99.90;;;;;;5059787;28;20462;-69
2021/01/08 09:51:33;;;;;;;7.70;4.68;;;4.60;99.90;;;;;;5075649;28;20059;-70
2021/01/08 09:53:59;;;;;;;8.93;5.15;;;4.60;99.90;;;;;;5077162;28;20458;-70
2021/01/08 09:56:24;;;;;;;8.15;4.68;;;4.60;99.90;;;;;;5075648;28;20040;-70
2021/01/08 09:59:26;;;;;;;11.43;5.15;;;4.60;99.90;;;;;;5075407;28;20381;-69
2021/01/08 10:01:57;;;;;;;6.85;4.55;;;4.60;99.90;;;;;;5053755;28;20095;-68
2021/01/08 10:04:26;;;;;;;7.25;4.70;;;4.50;99.90;;;;;;5067707;28;20032;-69
2021/01/08 10:07:00;;;;;;;7.60;5.07;;;4.50;99.90;;;;;;5075258;28;20171;-70
2021/01/08 10:09:26;;;;;;;8.40;5.32;;;4.50;99.90;;;;;;5075218;28;20343;-70
2021/01/08 10:12:01;;;;;;;10.45;5.88;;;4.50;99.90;;;;;;5076967;28;20389;-72
2021/01/08 10:14:33;;;;;;;8.35;5.15;;;4.50;99.90;;;;;;5075248;28;20032;-70
2021/01/08 10:17:12;;;;;;;11.70;6.20;;;4.60;99.90;;;;;;5075335;28;20048;-70
2021/01/08 10:19:40;;;;;;;11.25;5.97;;;4.50;99.90;;;;;;5063472;28;20029;-71
2021/01/08 10:22:05;;;;;;;20.48;7.32;;;4.60;99.90;;;;;;5060377;28;20054;-70
2021/01/08 10:24:31;;;;;;;10.30;6.32;;;4.60;99.90;;;;;;5075041;28;20024;-69
2021/01/08 10:26:57;;;;;;;11.85;6.72;;;4.70;99.90;;;;;;5076591;28;20028;-70
2021/01/08 10:29:29;;;;;;;11.27;6.60;;;4.70;99.90;;;;;;5075082;28;20070;-71
2021/01/08 10:31:57;;;;;;;17.25;9.20;;;4.80;99.90;;;;;;5074853;28;20032;-72
2021/01/08 10:34:23;;;;;;;13.32;7.65;;;5.00;99.90;;;;;;5073991;28;20032;-70
2021/01/08 10:36:49;;;;;;;16.73;7.72;;;5.00;99.90;;;;;;5074737;28;20028;-70
2021/01/08 10:39:15;;;;;;;12.35;7.53;;;5.00;99.90;;;;;;5076147;28;20052;-71
2021/01/08 10:41:40;;;;;;;15.70;7.88;;;5.10;99.90;;;;;;5074878;28;20037;-70
2021/01/08 10:44:06;;;;;;;16.02;7.22;;;5.10;99.90;;;;;;5074759;28;20332;-70
2021/01/08 10:46:32;;;;;;;12.98;7.47;;;5.00;99.90;;;;;;5074447;28;20036;-71
2021/01/08 10:48:57;;;;;;;13.13;7.57;;;5.00;99.90;;;;;;5074468;28;20050;-71
2021/01/08 10:51:29;;;;;;;14.18;7.78;;;5.10;99.90;;;;;;5073626;28;20031;-70
2021/01/08 10:53:55;;;;;;;14.48;8.02;;;5.10;99.90;;;;;;5075381;28;20455;-69
2021/01/08 10:56:28;;;;;;;15.13;7.72;;;5.00;99.90;;;;;;5074302;28;20482;-71
2021/01/08 10:58:53;;;;;;;14.35;8.27;;;5.00;99.90;;;;;;5074368;28;20474;-70
2021/01/08 11:01:19;;;;;;;13.20;7.95;;;5.10;99.90;;;;;;5074320;28;20040;-70
2021/01/08 11:03:44;;;;;;;17.70;7.93;;;5.10;99.90;;;;;;5074309;28;20121;-69
2021/01/08 11:06:18;;;;;;;14.80;7.57;;;5.10;99.80;;;;;;5075857;28;20025;-76
2021/01/08 11:08:45;;;;;;;15.73;8.15;;;5.10;99.80;;;;;;5074253;28;20493;-70
2021/01/08 11:11:11;;;;;;;13.70;7.32;;;5.10;99.80;;;;;;5072830;28;20481;-72
2021/01/08 11:13:37;;;;;;;17.38;8.70;;;5.00;99.90;;;;;;5073042;28;20121;-72
2021/01/08 11:16:05;;;;;;;15.23;8.23;;;5.10;99.90;;;;;;5074095;28;20036;-73
2021/01/08 11:18:30;;;;;;;12.30;7.80;;;5.20;99.90;;;;;;5074287;28;20107;-71
2021/01/08 11:20:56;;;;;;;16.58;8.40;;;5.30;99.90;;;;;;5075674;28;20277;-69
2021/01/08 11:23:21;;;;;;;14.25;7.95;;;5.30;99.70;;;;;;5074348;28;20052;-70
2021/01/08 11:25:47;;;;;;;13.52;7.80;;;5.30;99.60;;;;;;5074079;28;20028;-71
2021/01/08 11:28:12;;;;;;;15.80;8.80;;;5.20;99.70;;;;;;5073875;28;20407;-70
2021/01/08 11:30:38;;;;;;;15.45;8.55;;;5.10;99.70;;;;;;5073788;28;20458;-72
2021/01/08 11:33:04;;;;;;;17.20;8.68;;;5.10;99.80;;;;;;5074233;28;20111;-73
2021/01/08 11:35:30;;;;;;;16.00;8.80;;;5.20;99.70;;;;;;5073855;28;20497;-70
2021/01/08 11:37:55;;;;;;;17.40;8.52;;;5.30;99.60;;;;;;5073487;28;20048;-71
2021/01/08 11:40:22;;;;;;;14.25;8.43;;;5.30;99.50;;;;;;5072465;28;20024;-69
2021/01/08 11:42:48;;;;;;;14.98;8.18;;;5.20;99.60;;;;;;5073602;28;20028;-70
2021/01/08 11:45:14;;;;;;;16.05;8.50;;;5.20;99.50;;;;;;5075283;28;20046;-74
2021/01/08 11:47:39;;;;;;;16.38;8.80;;;5.20;99.50;;;;;;5073473;28;20374;-72
2021/01/08 11:50:06;;;;;;;15.02;8.25;;;5.30;99.50;;;;;;5072986;28;20036;-73
2021/01/08 11:52:32;;;;;;;18.42;8.73;;;5.20;99.50;;;;;;5073341;28;20040;-72
2021/01/08 11:54:58;;;;;;;16.25;8.75;;;5.30;99.30;;;;;;5070465;28;20115;-79
2021/01/08 11:57:24;;;;;;;21.75;10.63;;;5.40;99.40;;;;;;5073172;28;20035;-80
2021/01/08 11:59:53;;;;;;;23.48;10.07;;;5.40;99.40;;;;;;5076189;28;20036;-75
2021/01/08 12:02:19;;;;;;;17.25;8.75;;;5.50;99.40;;;;;;5072950;28;20068;-72
2021/01/08 12:04:47;;;;;;;17.38;8.13;;;5.40;99.50;;;;;;5074099;28;20060;-72
2021/01/08 12:07:12;;;;;;;15.80;8.63;;;5.30;99.20;;;;;;5073485;28;20103;-70
2021/01/08 12:09:38;;;;;;;20.10;9.38;;;5.30;99.40;;;;;;5073735;28;20029;-71
2021/01/08 12:12:05;;;;;;;17.23;9.00;;;5.30;99.50;;;;;;5075179;28;20021;-80
2021/01/08 12:14:31;;;;;;;18.20;9.20;;;5.40;99.50;;;;;;5073577;28;20051;-78
2021/01/08 12:17:07;;;;;;;19.77;9.75;;;5.40;99.30;;;;;;5072947;28;20454;-72
2021/01/08 12:19:33;;;;;;;18.70;9.63;;;5.40;99.30;;;;;;5072971;28;20035;-70
2021/01/08 12:21:59;;;;;;;19.35;9.50;;;5.30;99.00;;;;;;5072126;28;20032;-79
2021/01/08 12:24:25;;;;;;;21.27;9.80;;;5.10;99.00;;;;;;5073291;28;20024;-72
2021/01/08 12:26:51;;;;;;;20.92;9.80;;;5.00;99.40;;;;;;5074224;28;20032;-71
2021/01/08 12:29:17;;;;;;;17.33;8.13;;;5.10;99.70;;;;;;5072715;28;20517;-74
2021/01/08 12:31:43;;;;;;;18.30;8.73;;;5.10;99.90;;;;;;5071758;28;20037;-72
2021/01/08 12:34:08;;;;;;;16.45;8.15;;;5.20;99.60;;;;;;5072836;28;20031;-71
2021/01/08 12:36:34;;;;;;;15.57;8.13;;;5.10;99.50;;;;;;5072432;28;20344;-71
2021/01/08 12:38:59;;;;;;;17.00;8.80;;;5.20;99.50;;;;;;5073873;28;20136;-72
2021/01/08 12:41:25;;;;;;;21.25;9.73;;;5.30;99.50;;;;;;5072597;28;20056;-70
2021/01/08 12:43:51;;;;;;;19.95;9.05;;;5.30;99.30;;;;;;5072603;28;20060;-70
2021/01/08 12:46:20;;;;;;;18.30;8.93;;;5.20;99.40;;;;;;5072144;28;20033;-70
2021/01/08 12:48:46;;;;;;;20.67;9.93;;;5.20;99.60;;;;;;5070673;28;20036;-72
2021/01/08 12:51:13;;;;;;;24.70;11.88;;;5.30;99.50;;;;;;5073617;28;20024;-70
2021/01/08 12:53:39;;;;;;;17.02;9.13;;;5.30;99.50;;;;;;5072173;28;20035;-70
2021/01/08 12:56:05;;;;;;;16.40;8.75;;;5.30;99.30;;;;;;5072318;28;20040;-74
2021/01/08 12:58:31;;;;;;;19.25;8.32;;;5.30;99.30;;;;;;5070907;28;20036;-71
2021/01/08 13:00:57;;;;;;;18.52;9.05;;;5.30;99.20;;;;;;5072024;28;20063;-70